createdAt,value
2022-09-23T00:01:19.531Z,100.00
2022-09-23T00:03:47.235Z,100.00
2022-09-23T00:06:22.817Z,100.00
2022-09-23T00:08:50.415Z,100.00
2022-09-23T00:11:25.490Z,100.00
2022-09-23T00:13:55.439Z,100.00
2022-09-23T00:16:26.756Z,100.00
2022-09-23T00:18:53.415Z,100.00
2022-09-23T00:21:22.005Z,100.00
2022-09-23T00:23:48.835Z,100.00
2022-09-23T00:26:19.104Z,100.00
2022-09-23T00:28:46.641Z,99.96
2022-09-23T00:31:21.548Z,99.89
2022-09-23T00:33:53.158Z,100.00
2022-09-23T00:36:19.887Z,100.00
2022-09-23T00:38:46.889Z,100.00
2022-09-23T00:41:17.179Z,100.00
2022-09-23T00:43:48.552Z,100.00
2022-09-23T00:46:20.648Z,100.00
2022-09-23T00:48:48.986Z,100.00
2022-09-23T00:51:20.106Z,100.00
2022-09-23T00:53:50.299Z,100.00
2022-09-23T00:56:18.486Z,100.00
2022-09-23T00:58:47.595Z,100.00
2022-09-23T01:01:14.535Z,100.00
2022-09-23T01:03:45.516Z,100.00
2022-09-23T01:06:13.597Z,100.00
2022-09-23T01:08:44.106Z,100.00
2022-09-23T01:12:18.662Z,100.00
2022-09-23T01:14:52.885Z,100.00
2022-09-23T01:17:32.827Z,100.00
2022-09-23T01:20:36.882Z,100.00
2022-09-23T01:23:28.478Z,100.00
2022-09-23T01:26:46.435Z,100.00
2022-09-23T01:29:33.234Z,100.00
2022-09-23T01:32:21.296Z,100.00
2022-09-23T01:34:57.488Z,100.00
2022-09-23T01:37:39.421Z,100.00
2022-09-23T01:40:18.170Z,100.00
2022-09-23T01:42:52.760Z,100.00
2022-09-23T01:45:42.116Z,100.00
2022-09-23T01:48:21.639Z,100.00
2022-09-23T01:51:12.754Z,100.00
2022-09-23T01:53:49.626Z,100.00
2022-09-23T01:56:32.658Z,100.00
2022-09-23T01:59:15.065Z,100.00
2022-09-23T02:01:56.321Z,100.00
2022-09-23T02:04:31.223Z,100.00
2022-09-23T02:07:15.386Z,100.00
2022-09-23T02:09:46.245Z,100.00
2022-09-23T02:12:18.387Z,99.75
2022-09-23T02:15:02.240Z,99.59
2022-09-23T02:17:40.078Z,99.40
2022-09-23T02:20:07.760Z,99.66
2022-09-23T02:22:48.906Z,99.96
2022-09-23T02:25:17.439Z,100.00
2022-09-23T02:28:11.681Z,100.00
2022-09-23T02:30:49.141Z,100.00
2022-09-23T02:33:30.502Z,100.00
2022-09-23T02:36:27.248Z,100.00
2022-09-23T02:38:59.166Z,100.00
2022-09-23T02:41:28.139Z,100.00
2022-09-23T02:44:12.753Z,100.00
2022-09-23T02:46:43.410Z,100.00
2022-09-23T02:49:19.136Z,100.00
2022-09-23T02:51:46.655Z,100.00
2022-09-23T02:54:16.919Z,100.00
2022-09-23T02:56:43.764Z,100.00
2022-09-23T02:59:12.433Z,100.00
2022-09-23T03:02:04.321Z,100.00
2022-09-23T03:04:50.553Z,100.00
2022-09-23T03:07:50.129Z,100.00
2022-09-23T03:10:24.825Z,100.00
2022-09-23T03:12:58.041Z,100.00
2022-09-23T03:15:43.029Z,100.00
2022-09-23T03:18:18.195Z,100.00
2022-09-23T03:20:50.598Z,100.00
2022-09-23T03:23:23.897Z,100.00
2022-09-23T03:25:54.194Z,100.00
2022-09-23T03:28:22.901Z,100.00
2022-09-23T03:30:51.903Z,100.00
2022-09-23T03:33:25.715Z,100.00
2022-09-23T03:36:20.832Z,100.00
2022-09-23T03:38:52.809Z,100.00
2022-09-23T03:41:29.749Z,100.00
2022-09-23T03:43:58.497Z,100.00
2022-09-23T03:46:30.245Z,100.00
2022-09-23T03:49:02.775Z,100.00
2022-09-23T03:51:29.446Z,100.00
2022-09-23T03:53:56.339Z,100.00
2022-09-23T03:56:22.977Z,100.00
2022-09-23T03:58:49.740Z,100.00
2022-09-23T04:01:16.482Z,100.00
2022-09-23T04:03:43.418Z,100.00
2022-09-23T04:06:10.222Z,100.00
2022-09-23T04:08:37.022Z,100.00
2022-09-23T04:11:05.012Z,100.00
2022-09-23T04:13:34.250Z,100.00
2022-09-23T04:16:01.091Z,100.00
2022-09-23T04:18:27.994Z,100.00
2022-09-23T04:21:01.125Z,100.00
2022-09-23T04:23:28.057Z,100.00
2022-09-23T04:25:55.444Z,100.00
2022-09-23T04:28:22.798Z,100.00
2022-09-23T04:30:49.800Z,100.00
2022-09-23T04:33:17.522Z,100.00
2022-09-23T04:35:44.271Z,100.00
2022-09-23T04:38:12.597Z,100.00
2022-09-23T04:40:39.866Z,100.00
2022-09-23T04:43:09.476Z,100.00
2022-09-23T04:45:38.738Z,100.00
2022-09-23T04:48:05.359Z,100.00
2022-09-23T04:50:34.261Z,100.00
2022-09-23T04:53:02.571Z,100.00
2022-09-23T04:55:30.154Z,100.00
2022-09-23T04:57:57.323Z,100.00
2022-09-23T05:00:24.353Z,100.00
2022-09-23T05:02:51.334Z,100.00
2022-09-23T05:05:23.520Z,100.00
2022-09-23T05:07:51.280Z,100.00
2022-09-23T05:10:18.311Z,100.00
2022-09-23T05:12:44.975Z,100.00
2022-09-23T05:15:13.148Z,100.00
2022-09-23T05:17:39.754Z,100.00
2022-09-23T05:20:06.989Z,100.00
2022-09-23T05:22:33.560Z,100.00
2022-09-23T05:25:01.639Z,100.00
2022-09-23T05:27:29.120Z,100.00
2022-09-23T05:29:55.714Z,100.00
2022-09-23T05:32:22.394Z,100.00
2022-09-23T05:34:49.505Z,100.00
2022-09-23T05:37:16.207Z,100.00
2022-09-23T05:39:42.790Z,100.00
2022-09-23T05:42:09.922Z,100.00
2022-09-23T05:44:36.544Z,100.00
2022-09-23T05:47:03.289Z,100.00
2022-09-23T05:49:55.271Z,100.00
2022-09-23T05:52:17.592Z,100.00
2022-09-23T05:54:44.194Z,99.27
2022-09-23T05:57:10.820Z,93.93
2022-09-23T05:59:38.040Z,89.70
2022-09-23T06:02:04.809Z,87.29
2022-09-23T06:04:31.591Z,86.83
2022-09-23T06:07:02.761Z,85.25
2022-09-23T06:09:35.637Z,85.22
2022-09-23T06:12:03.560Z,82.55
2022-09-23T06:14:30.292Z,80.98
2022-09-23T06:16:56.894Z,77.50
2022-09-23T06:19:23.541Z,77.76
2022-09-23T06:21:50.198Z,75.70
2022-09-23T06:24:20.312Z,76.55
2022-09-23T06:26:49.102Z,73.80
2022-09-23T06:29:16.111Z,71.63
2022-09-23T06:31:43.447Z,68.80
2022-09-23T06:34:13.544Z,65.86
2022-09-23T06:36:45.739Z,67.98
2022-09-23T06:39:16.172Z,64.66
2022-09-23T06:41:43.839Z,63.35
2022-09-23T06:44:14.421Z,59.98
2022-09-23T06:46:41.166Z,58.08
2022-09-23T06:49:07.903Z,60.71
2022-09-23T06:51:34.588Z,59.09
2022-09-23T06:54:01.199Z,56.79
2022-09-23T06:56:27.887Z,60.11
2022-09-23T06:58:54.849Z,53.95
2022-09-23T07:01:22.305Z,55.12
2022-09-23T07:03:49.020Z,54.32
2022-09-23T07:06:16.202Z,52.05
2022-09-23T07:08:44.915Z,49.96
2022-09-23T07:11:13.111Z,49.50
2022-09-23T07:13:41.265Z,53.86
2022-09-23T07:16:09.190Z,49.36
2022-09-23T07:18:37.576Z,48.38
2022-09-23T07:21:15.972Z,48.70
2022-09-23T07:23:44.159Z,49.59
2022-09-23T07:26:10.870Z,47.02
2022-09-23T07:28:38.341Z,47.18
2022-09-23T07:31:14.778Z,45.18
2022-09-23T07:33:44.174Z,47.80
2022-09-23T07:36:14.396Z,46.13
2022-09-23T07:38:45.138Z,47.00
2022-09-23T07:41:14.928Z,48.76
2022-09-23T07:43:41.699Z,44.03
2022-09-23T07:46:11.585Z,39.93
2022-09-23T07:48:39.317Z,43.97
2022-09-23T07:51:10.709Z,41.10
2022-09-23T07:53:37.410Z,38.17
2022-09-23T07:56:06.335Z,37.54
2022-09-23T07:58:34.647Z,39.17
2022-09-23T08:01:10.274Z,40.66
2022-09-23T08:03:38.087Z,38.89
2022-09-23T08:06:11.141Z,37.44
2022-09-23T08:08:40.471Z,35.85
2022-09-23T08:11:10.251Z,35.95
2022-09-23T08:13:37.799Z,37.06
2022-09-23T08:16:04.687Z,39.90
2022-09-23T08:18:31.358Z,34.98
2022-09-23T08:20:58.080Z,35.07
2022-09-23T08:23:25.658Z,34.38
2022-09-23T08:26:00.863Z,34.22
2022-09-23T08:28:28.143Z,33.44
2022-09-23T08:30:55.816Z,32.40
2022-09-23T08:33:23.645Z,34.44
2022-09-23T08:35:51.494Z,34.65
2022-09-23T08:38:18.904Z,31.42
2022-09-23T08:40:49.456Z,32.71
2022-09-23T08:43:31.301Z,34.29
2022-09-23T08:46:02.636Z,36.62
2022-09-23T08:48:33.363Z,33.01
2022-09-23T08:51:33.842Z,30.56
2022-09-23T08:54:00.946Z,34.29
2022-09-23T08:56:30.738Z,34.99
2022-09-23T08:59:05.643Z,31.13
2022-09-23T09:01:47.143Z,30.93
2022-09-23T09:04:16.677Z,30.98
2022-09-23T09:10:09.636Z,32.33
2022-09-23T09:12:52.471Z,30.39
2022-09-23T09:15:25.323Z,31.48
2022-09-23T09:18:01.225Z,31.24
2022-09-23T09:21:16.029Z,29.41
2022-09-23T09:23:56.517Z,29.63
2022-09-23T09:26:33.538Z,29.70
2022-09-23T09:29:31.197Z,28.72
2022-09-23T09:31:59.515Z,29.35
2022-09-23T09:35:05.285Z,32.44
2022-09-23T09:37:41.410Z,33.66
2022-09-23T09:40:17.057Z,30.00
2022-09-23T09:42:48.484Z,32.06
2022-09-23T09:45:33.835Z,31.08
2022-09-23T09:48:10.966Z,29.05
2022-09-23T09:50:47.248Z,28.31
2022-09-23T09:53:21.074Z,27.39
2022-09-23T09:56:04.626Z,28.84
2022-09-23T09:58:51.306Z,27.88
2022-09-23T10:01:24.904Z,27.96
2022-09-23T10:03:59.167Z,25.99
2022-09-23T10:06:32.851Z,31.09
2022-09-23T10:09:08.554Z,28.53
2022-09-23T10:11:35.511Z,28.67
2022-09-23T10:14:13.997Z,27.66
2022-09-23T10:16:42.056Z,28.45
2022-09-23T10:19:25.331Z,26.52
2022-09-23T10:21:56.797Z,30.80
2022-09-23T10:24:26.481Z,25.79
2022-09-23T10:27:00.639Z,27.37
2022-09-23T10:29:33.759Z,27.03
2022-09-23T10:32:25.737Z,27.25
2022-09-23T10:35:17.013Z,27.18
2022-09-23T10:37:50.494Z,25.83
2022-09-23T10:40:37.634Z,25.79
2022-09-23T10:43:33.845Z,26.74
2022-09-23T10:46:24.492Z,27.54
2022-09-23T10:49:10.056Z,25.74
2022-09-23T10:51:58.522Z,23.73
2022-09-23T10:54:55.799Z,26.56
2022-09-23T10:57:43.406Z,23.64
2022-09-23T11:00:23.349Z,24.03
2022-09-23T11:02:52.880Z,23.93
2022-09-23T11:05:41.576Z,26.39
2022-09-23T11:08:27.799Z,26.48
2022-09-23T11:11:35.479Z,24.13
2022-09-23T11:14:08.121Z,24.86
2022-09-23T11:16:53.472Z,24.16
2022-09-23T11:19:57.873Z,22.51
2022-09-23T11:23:03.242Z,23.99
2022-09-23T11:25:54.608Z,24.66
2022-09-23T11:28:51.647Z,24.88
2022-09-23T11:31:37.423Z,24.78
2022-09-23T11:34:16.048Z,22.90
2022-09-23T11:37:14.082Z,23.93
2022-09-23T11:39:56.338Z,22.54
2022-09-23T11:42:28.899Z,24.25
2022-09-23T11:45:09.864Z,23.08
2022-09-23T11:47:45.479Z,23.36
2022-09-23T11:50:23.465Z,21.02
2022-09-23T11:52:58.747Z,22.65
2022-09-23T11:55:33.549Z,21.81
2022-09-23T11:58:22.609Z,21.76
2022-09-23T12:01:15.843Z,21.77
2022-09-23T12:04:12.462Z,21.79
2022-09-23T12:06:55.036Z,22.50
2022-09-23T12:09:58.141Z,21.08
2022-09-23T12:12:37.084Z,22.27
2022-09-23T12:15:36.272Z,21.04
2022-09-23T12:18:35.856Z,23.79
2022-09-23T12:21:38.845Z,23.11
2022-09-23T12:24:28.973Z,21.98
2022-09-23T12:27:02.175Z,21.32
2022-09-23T12:29:32.091Z,21.39
2022-09-23T12:31:59.497Z,20.31
2022-09-23T12:34:36.859Z,19.73
2022-09-23T12:37:05.598Z,20.16
2022-09-23T12:39:37.217Z,22.00
2022-09-23T12:42:11.163Z,22.04
2022-09-23T12:44:44.377Z,22.54
2022-09-23T12:47:21.122Z,21.35
2022-09-23T12:49:50.928Z,21.62
2022-09-23T12:52:17.479Z,20.60
2022-09-23T12:54:46.719Z,20.82
2022-09-23T12:57:34.191Z,22.47
2022-09-23T13:00:07.352Z,21.88
2022-09-23T13:02:38.353Z,22.88
2022-09-23T13:05:27.037Z,20.66
2022-09-23T13:08:05.305Z,21.38
2022-09-23T13:10:38.500Z,23.01
2022-09-23T13:13:06.759Z,21.14
2022-09-23T13:15:35.546Z,23.63
2022-09-23T13:18:21.059Z,19.56
2022-09-23T13:20:53.077Z,21.35
2022-09-23T13:23:27.358Z,20.45
2022-09-23T13:25:57.442Z,20.68
2022-09-23T13:28:29.546Z,22.32
2022-09-23T13:30:56.288Z,20.66
2022-09-23T13:33:49.931Z,23.26
2022-09-23T13:36:18.531Z,22.53
2022-09-23T13:38:48.703Z,24.02
2022-09-23T13:41:21.629Z,21.32
2022-09-23T13:43:55.949Z,21.72
2022-09-23T13:46:27.591Z,22.19
2022-09-23T13:48:55.410Z,23.05
2022-09-23T13:51:26.331Z,22.53
2022-09-23T13:54:01.036Z,22.30
2022-09-23T13:56:33.147Z,23.08
2022-09-23T13:59:24.864Z,22.53
2022-09-23T14:02:04.732Z,23.37
2022-09-23T14:04:31.422Z,24.44
2022-09-23T14:06:58.321Z,23.96
2022-09-23T14:09:28.193Z,23.22
2022-09-23T14:11:58.333Z,24.85
2022-09-23T14:14:27.326Z,23.06
2022-09-23T14:16:56.045Z,24.92
2022-09-23T14:19:25.682Z,23.32
2022-09-23T14:21:54.528Z,25.20
2022-09-23T14:24:31.970Z,23.63
2022-09-23T14:27:07.408Z,24.09
2022-09-23T14:29:39.472Z,23.48
2022-09-23T14:32:13.544Z,25.50
2022-09-23T14:34:41.628Z,27.05
2022-09-23T14:37:57.127Z,27.05
2022-09-23T14:40:35.294Z,29.54
2022-09-23T14:43:06.396Z,33.63
2022-09-23T14:45:36.191Z,33.26
2022-09-23T14:48:09.275Z,33.97
2022-09-23T14:50:36.954Z,31.72
2022-09-23T14:53:39.877Z,34.37
2022-09-23T14:56:06.337Z,34.75
2022-09-23T14:58:56.248Z,36.27
2022-09-23T15:01:32.257Z,33.20
2022-09-23T15:04:12.564Z,33.44
2022-09-23T15:06:42.512Z,34.05
2022-09-23T15:09:20.097Z,33.31
2022-09-23T15:11:47.433Z,35.44
2022-09-23T15:14:36.777Z,35.46
2022-09-23T15:17:06.862Z,37.27
2022-09-23T15:19:35.312Z,39.22
2022-09-23T15:22:02.328Z,41.39
2022-09-23T15:24:44.848Z,43.06
2022-09-23T15:27:33.054Z,39.93
2022-09-23T15:30:17.102Z,38.53
2022-09-23T15:32:45.558Z,39.38
2022-09-23T15:35:18.852Z,39.70
2022-09-23T15:37:47.280Z,40.57
2022-09-23T15:40:19.541Z,40.51
2022-09-23T15:42:51.425Z,42.45
2022-09-23T15:45:21.906Z,43.54
2022-09-23T15:47:50.569Z,42.34
2022-09-23T15:50:17.468Z,43.39
2022-09-23T15:52:45.156Z,47.20
2022-09-23T15:55:15.843Z,48.70
2022-09-23T15:57:42.528Z,47.44
2022-09-23T16:00:13.353Z,47.65
2022-09-23T16:02:40.351Z,48.58
2022-09-23T16:05:07.765Z,46.51
2022-09-23T16:07:34.359Z,48.13
2022-09-23T16:10:00.954Z,50.09
2022-09-23T16:12:27.849Z,50.20
2022-09-23T16:14:54.497Z,51.58
2022-09-23T16:17:21.178Z,52.14
2022-09-23T16:19:47.805Z,54.67
2022-09-23T16:22:15.937Z,55.77
2022-09-23T16:24:42.728Z,57.83
2022-09-23T16:27:12.289Z,59.93
2022-09-23T16:29:38.905Z,58.57
2022-09-23T16:32:05.561Z,60.01
2022-09-23T16:34:34.715Z,61.49
2022-09-23T16:37:01.407Z,62.04
2022-09-23T16:39:28.057Z,63.35
2022-09-23T16:41:54.672Z,63.57
2022-09-23T16:44:24.878Z,63.98
2022-09-23T16:46:51.495Z,64.42
2022-09-23T16:49:18.107Z,62.79
2022-09-23T16:51:44.883Z,63.36
2022-09-23T16:54:15.004Z,65.40
2022-09-23T16:56:44.361Z,64.90
2022-09-23T16:59:15.668Z,64.81
2022-09-23T17:02:01.084Z,65.57
2022-09-23T17:04:28.075Z,66.59
2022-09-23T17:06:55.934Z,66.80
2022-09-23T17:09:25.607Z,66.08
2022-09-23T17:12:00.131Z,66.45
2022-09-23T17:14:29.826Z,67.00
2022-09-23T17:16:58.682Z,67.09
2022-09-23T17:19:25.461Z,66.71
2022-09-23T17:21:53.162Z,67.20
2022-09-23T17:24:19.751Z,68.29
2022-09-23T17:26:51.989Z,68.57
2022-09-23T17:29:19.550Z,69.18
2022-09-23T17:31:46.645Z,69.68
2022-09-23T17:34:13.390Z,72.21
2022-09-23T17:36:40.409Z,70.69
2022-09-23T17:39:07.261Z,70.33
2022-09-23T17:41:33.975Z,70.95
2022-09-23T17:44:00.824Z,70.86
2022-09-23T17:46:30.016Z,71.61
2022-09-23T17:48:57.122Z,72.04
2022-09-23T17:51:25.426Z,73.63
2022-09-23T17:53:52.569Z,74.65
2022-09-23T17:56:21.722Z,74.69
2022-09-23T17:58:49.744Z,74.98
2022-09-23T18:01:24.546Z,75.84
2022-09-23T18:03:55.778Z,76.36
2022-09-23T18:06:24.833Z,77.38
2022-09-23T18:08:52.282Z,77.83
2022-09-23T18:11:24.470Z,77.14
2022-09-23T18:13:59.401Z,77.12
2022-09-23T18:16:29.221Z,77.84
2022-09-23T18:18:58.135Z,78.48
2022-09-23T18:21:28.009Z,78.11
2022-09-23T18:23:59.796Z,78.31
2022-09-23T18:26:34.052Z,78.29
2022-09-23T18:29:01.398Z,79.11
2022-09-23T18:31:35.184Z,78.97
2022-09-23T18:34:04.483Z,79.98
2022-09-23T18:36:31.117Z,82.72
2022-09-23T18:38:57.947Z,83.15
2022-09-23T18:41:24.636Z,83.17
2022-09-23T18:43:51.309Z,83.53
2022-09-23T18:46:20.462Z,83.49
2022-09-23T18:49:05.870Z,83.56
2022-09-23T18:51:34.827Z,82.70
2022-09-23T18:54:03.975Z,82.26
2022-09-23T18:56:37.109Z,82.80
2022-09-23T18:59:06.257Z,82.95
2022-09-23T19:01:34.222Z,82.81
2022-09-23T19:04:02.237Z,84.76
2022-09-23T19:06:31.304Z,85.42
2022-09-23T19:08:58.493Z,86.47
2022-09-23T19:11:25.317Z,86.15
2022-09-23T19:13:57.426Z,85.40
2022-09-23T19:16:25.208Z,84.32
2022-09-23T19:18:52.830Z,85.29
2022-09-23T19:21:21.860Z,85.30
2022-09-23T19:23:54.338Z,85.89
2022-09-23T19:26:31.712Z,86.25
2022-09-23T19:29:00.331Z,85.46
2022-09-23T19:31:30.298Z,86.34
2022-09-23T19:34:00.717Z,87.23
2022-09-23T19:36:31.765Z,87.02
2022-09-23T19:39:02.664Z,86.45
2022-09-23T19:41:35.443Z,86.07
2022-09-23T19:44:03.355Z,86.51
2022-09-23T19:46:33.698Z,87.06
2022-09-23T19:49:00.979Z,87.02
2022-09-23T19:51:28.321Z,86.22
2022-09-23T19:53:54.943Z,86.09
2022-09-23T19:56:21.612Z,86.39
2022-09-23T19:58:54.318Z,86.63
2022-09-23T20:01:29.323Z,87.62
2022-09-23T20:03:56.495Z,89.10
2022-09-23T20:06:23.226Z,88.91
2022-09-23T20:08:50.271Z,89.19
2022-09-23T20:11:21.770Z,89.04
2022-09-23T20:13:58.492Z,88.93
2022-09-23T20:16:25.909Z,88.56
2022-09-23T20:18:53.058Z,88.20
2022-09-23T20:21:19.726Z,87.52
2022-09-23T20:23:46.329Z,87.12
2022-09-23T20:26:31.757Z,86.72
2022-09-23T20:29:01.375Z,86.62
2022-09-23T20:31:29.443Z,86.44
2022-09-23T20:34:00.346Z,86.87
2022-09-23T20:36:29.298Z,86.85
2022-09-23T20:38:59.414Z,87.46
2022-09-23T20:41:31.245Z,87.42
2022-09-23T20:44:02.337Z,87.62
2022-09-23T20:46:29.522Z,88.36
2022-09-23T20:48:56.777Z,88.93
2022-09-23T20:51:24.892Z,89.42
2022-09-23T20:53:52.959Z,89.58
2022-09-23T20:56:21.302Z,89.94
2022-09-23T20:58:50.371Z,90.13
2022-09-23T21:01:17.152Z,90.52
2022-09-23T21:03:46.476Z,91.15
2022-09-23T21:06:17.321Z,90.55
2022-09-23T21:08:46.603Z,90.45
2022-09-23T21:11:16.141Z,90.60
2022-09-23T21:13:47.216Z,91.35
2022-09-23T21:16:17.860Z,91.30
2022-09-23T21:18:45.550Z,91.59
2022-09-23T21:21:14.314Z,91.92
2022-09-23T21:23:42.409Z,92.79
2022-09-23T21:26:19.313Z,93.04
2022-09-23T21:28:58.736Z,93.10
2022-09-23T21:31:26.692Z,92.49
2022-09-23T21:33:59.116Z,92.28
2022-09-23T21:36:28.749Z,91.94
2022-09-23T21:38:56.066Z,91.69
2022-09-23T21:41:23.680Z,91.38
2022-09-23T21:43:51.031Z,90.69
2022-09-23T21:46:22.674Z,90.52
2022-09-23T21:48:53.379Z,90.87
2022-09-23T21:51:25.925Z,90.68
2022-09-23T21:53:57.691Z,89.31
2022-09-23T21:56:29.668Z,89.38
2022-09-23T21:58:58.376Z,90.24
2022-09-23T22:01:27.123Z,90.99
2022-09-23T22:03:57.814Z,91.88
2022-09-23T22:06:27.159Z,93.07
2022-09-23T22:08:59.632Z,94.24
2022-09-23T22:11:47.771Z,94.43
2022-09-23T22:14:16.368Z,94.33
2022-09-23T22:16:43.442Z,94.04
2022-09-23T22:19:12.573Z,93.57
2022-09-23T22:21:41.106Z,93.55
2022-09-23T22:24:09.744Z,94.37
2022-09-23T22:26:41.908Z,94.55
2022-09-23T22:29:31.034Z,94.33
2022-09-23T22:32:16.662Z,95.45
2022-09-23T22:34:51.459Z,96.23
2022-09-23T22:37:27.213Z,95.87
2022-09-23T22:39:54.757Z,95.73
2022-09-23T22:42:22.459Z,96.00
2022-09-23T22:44:49.885Z,96.70
2022-09-23T22:47:17.993Z,96.41
2022-09-23T22:49:46.035Z,96.68
2022-09-23T22:52:14.904Z,96.76
2022-09-23T22:54:42.072Z,97.19
2022-09-23T22:57:09.302Z,97.63
2022-09-23T22:59:37.353Z,98.21
2022-09-23T23:02:04.264Z,98.67
2022-09-23T23:04:31.075Z,98.70
2022-09-23T23:06:58.695Z,98.86
2022-09-23T23:09:25.912Z,98.62
2022-09-23T23:11:52.608Z,99.11
2022-09-23T23:14:19.345Z,99.22
2022-09-23T23:16:46.587Z,99.27
2022-09-23T23:19:17.009Z,99.00
2022-09-23T23:21:45.347Z,98.43
2022-09-23T23:24:19.428Z,97.68
2022-09-23T23:26:46.931Z,96.62
2022-09-23T23:29:16.073Z,95.67
2022-09-23T23:31:43.637Z,95.20
2022-09-23T23:34:19.276Z,94.52
2022-09-23T23:36:47.136Z,94.48
2022-09-23T23:39:14.367Z,94.84
2022-09-23T23:41:41.625Z,95.30
2022-09-23T23:44:08.962Z,95.52
2022-09-23T23:46:37.362Z,96.00
2022-09-23T23:49:04.965Z,96.10
2022-09-23T23:51:32.116Z,96.58
2022-09-23T23:53:59.591Z,97.11
2022-09-23T23:56:27.365Z,97.26
2022-09-23T23:58:58.471Z,97.33
